Port Weller, Canada
Current Conditions -  °F | °C
As of 10:00 AM on Tuesday 21 Oct 2014 (Local Time) from CYSN Reporting Station
Overcast Overcast  
Wind Chill: 52°   Ceiling: 1900
Heat Index: 52°   Visibility: 7mi
Dew Point: 50°   Wind: 6mph
Humidity: 94%   Direction: 260°W
Pressure: 29.84"   Gusts: NA
Location:  43.22°N, 79.22°W
Report Text: CYSN 211400Z 26005KT 7SM SCT010 OVC019 11/10 A2984 RMK SC4SC4 SLP107
Loading
Personal Weather Stations






























Interactive Weather Map
Tropical Storm Tracking
New forecast layout! Learn more

10-Day Weather Forecast

Advertisements
Track Severe Weather on mobile